916-712-3993

Made2BFit Memorial Day Run Results

Please rotate your phone to view results on mobile devices.

Overall PlaceFirst NameLast NameChipTimeBibGenderGen PlaceTot GendAgeAge GroupAG PlaceTot AGTot DivTotal PaceGunTime
1GeraldoDrag18:351286M17846M 45-49131946:00/M18:39
2KameronHyden18:59836M27814M 14-19151946:07/M19:03
3TrevorBranstetter19:20754M37815M 14-19251946:14/M19:25
4BlakeSlattery20:0466M47823M 20-24181946:28/M20:49
5ChaseMeineke20:40852M57831M 30-34151946:40/M20:45
6KevinVasquez20:478M67820M 20-24281946:42/M20:56
7ChuckStigers20:52898M77838M 35-39171946:44/M21:25
8GrahamWeaver21:2711M87811M 11-13181946:55/M21:31
9JackDuininck21:281285M97813M 11-13281946:55/M21:31
10MichelleMayfield21:31275F111643F 40-441141946:56/M21:37
11EliasMailland22:15846M107811M 11-13381947:11/M22:19
12WesleyMorgan22:27858M117815M 14-19351947:15/M22:33
13ChristianContreras22:3814M127815M 14-19451947:18/M22:43
14BrianWeaver22:43266M137843M 40-44181947:20/M22:48
15SanPaolo22:581279M147865M 65-69131947:25/M23:14
16KristianAustin23:0131M15789M 1-10161947:25/M23:07
17ArsenioEspino23:0957M167841M 40-44281947:28/M23:19
18KevinMochizuki23:1053M177851M 50-54191947:28/M23:29
19DennisChernichen23:15768M187854M 50-54291947:30/M23:28
20JakobHudson23:32832M197812M 11-13481947:35/M23:42
21JessicaSchober23:4047F211626F 25-291101947:38/M23:49
22AllenElrod24:25:00803M207828M 25-29141947:53/M24:38:00
23BrienDodd24:26:00784M217860M 60-64151947:53/M24:35:00
24JanCunningham24:33:00779F311661F 60-64141947:55/M24:41:00
25EddieCoreas25:19:0030M227822M 20-24381948:10/M25:36:00
26JenniferRiffey25:33:00877M237838M 35-39271948:15/M25:43:00
27ArthurVasquez25:36:007M247843M 40-44381948:15/M25:45:00
28LorenReith25:49:0017M257863M 60-64251948:20/M26:05:00
29LorelynRuiz25:50:00878F411629F 25-292101948:20/M26:06:00
30BryantStott25:52:001282M267827M 25-29241948:21/M26:21:00
31McKaylaMortus26:03:00860F511613F 11-13151948:24/M26:09:00
32ClaudiaLopez26:05:00257F611621F 20-24171948:25/M26:22:00
33JosephGonzalez26:25:001245M277834M 30-34251948:31/M26:37:00
34AutumGonzalez26:25:001165F711629F 25-293101948:31/M26:37:00
35LindaDi Nieri26:38:00781F811662F 60-64241948:35/M26:46:00
36MarissaFreeman26:53:00811F911621F 20-24271948:40/M27:19:00
37ColeFirman26:54:00806M287824M 20-24481948:41/M27:19:00
38JasonMoyer-Schmit27:00:00863M297843M 40-44481948:43/M27:23:00
39StephanieFlanders27:11:00807F1011632F 30-341121948:46/M27:23:00
40BrookeWeaver27:16:0010F111169F 1-101151948:48/M27:19:00
41AlmaHeras27:28:00829F1211646F 45-491101948:52/M27:44:00
42SHELLYMASON27:37:00849F1311654F 50-541141948:55/M27:51:00
43JoeDiNieri27:44:00783M307863M 60-64351948:57/M27:53:00
44TylerWeckesser27:48:001237M317811M 11-13581948:58/M28:03:00
45JulianSaenz27:51:00879M327839M 35-39371948:59/M28:04:00
46KaiaThompson28:00:001F141169F 1-102151949:02/M28:26:00
47JaniceLovendahl28:10:00845F1511649F 45-492101949:05/M29:34:00
48NicholasArmenta28:11:00101M337810M 1-10261949:05/M28:15:00
49EmilyHulstrom28:14:00835F1611630F 30-342121949:06/M28:34:00
50VanessaPorras28:27:0029F1711622F 20-24371949:11/M28:44:00
51ArtGallardo28:29:0016M347868M 65-69231949:11/M28:33:00
52CassadyBarrett28:29:00638F1811611F 11-13251949:11/M28:34:00
53PhillipVan Saun28:31:006M357851M 50-54391949:12/M28:39:00
54DobieAugust28:40:00272M367830M 30-34351949:15/M29:23:00
55MaribethJohnson28:43:00840F1911638F 35-391131949:16/M28:58:00
56SandraLedezma28:45:00258F2011643F 40-442141949:16/M29:01:00
57LinaChernichen28:47:00769F2111652F 50-542141949:17/M28:53:00
58KristiShevkun28:48:00884F2211622F 20-24471949:17/M31:59:00
59MarquisLewis28:48:0028M377824M 20-24581949:17/M29:01:00
60MichelleWeaver28:53:0012F2311642F 40-443141949:19/M29:00:00
61RafaelOjeda28:54:0033M387837M 35-39471949:19/M29:37:00
62CorinneSmith29:14:00891F2411610F 1-103151949:26/M29:17:00
63BrianTooley29:15:005M397844M 40-44581949:26/M29:25:00
64PeterPerez29:29:00869M407859M 55-59151949:31/M29:39:00
65AmyMoyer-Schmit29:36:00862F2511642F 40-444141949:33/M29:59:00
66DanielWorkman29:39:0037M417851M 50-54491949:34/M30:11:00
67SerenityFigueroa29:43:0039F2611612F 11-13351949:35/M30:11:00
68GiselleEspino29:44:0056F2711614F 14-19131949:35/M29:55:00
69TimHarvey29:53:00825M427851M 50-54591949:38/M30:19:00
70KylieMortus30:00:00859F2811610F 1-104151949:41/M30:06:00
71StewartSmits30:06:00895M437864M 60-64451949:43/M31:22:00
72GlenBarrett30:19:00649M447836M 35-39571949:47/M30:24:00
73WyattJohnston30:41:0023M457824M 20-24681949:54/M31:01:00
74AmyWilson30:42:0022F2911648F 45-493101949:54/M31:01:00
75TifinieSpencer31:10:00897F3011644F 40-4451419410:03/M31:27:00
76SOPHIAATHEY-VEYNA31:20:00595F3111631F 30-3431219410:06/M31:27:00
77LangleySmith31:24:00893F3211612F 11-134519410:08/M31:29:00
78DebbyCossart31:36:00777F3311658F 55-591719410:12/M31:46:00
79MONICA APRILCO31:40:00771F3411630F 30-3441219410:13/M35:06:00
80MelissaStigers31:54:00899F3511637F 35-3921319410:17/M32:32:00
81NancySmith31:56:001223F3611644F 40-4461419410:18/M32:04:00
82ChristineSeeger32:22:00883F3711630F 30-3451219410:26/M32:35:00
83CrystalCuevas32:42:00778F3811636F 35-3931319410:33/M33:42:00
84KrystinaHasty32:48:00826F3911625F 25-2941019410:35/M33:32:00
85BradySorensen33:04:00896F401166F 1-1051519410:40/M33:13:00
86HollyCato-Sorensen33:06:00767F4111633F 30-3461219410:41/M33:14:00
87GaryJones33:07:00841M467850M 50-546919410:41/M33:55:00
88DuaneStott33:15:001281M477849M 45-492319410:44/M33:43:00
89AndrewGarcia33:36:001284M487812M 11-136819410:50/M34:05:00
90IanO'Brien33:39:0062M49789M 1-103619410:51/M34:45:00
91EllaVandoren33:39:00224F421164F 1-1061519410:51/M34:46:00
92JamesVandoren33:39:0063M507854M 50-547919410:51/M34:47:00
93ArmandoMuniz33:56:0067M517827M 25-293419410:57/M39:30:00
94EliseCruz33:58:0068F4311626F 25-2951019410:57/M39:30:00
95AvelynWarren34:10:001232F4411636F 35-3941319411:01/M34:21:00
96ANGELCEBREROS34:23:0015M527827M 25-294419411:05/M34:23:00
97DanielJacobi34:25:00837M537850M 50-548919411:06/M34:53:00
98GARYBAYSINGER34:28:00698M547856M 55-592519411:07/M34:58:00
99StevenGrimble34:38:00820M557832M 30-344519411:10/M35:24:00
100KatieGrimble34:39:00819F4511631F 30-3471219411:11/M35:24:00
101JanaPerkins35:32:00263F4611660F 60-643419411:28/M35:55:00
102ChrisGordon35:38:00816M567844M 40-446819411:30/M36:36:00
103PaulNewell35:39:00864M577857M 55-593519411:30/M36:07:00
104ChristopherGordon35:40:00817M58788M 1-104619411:30/M36:35:00
105CherylSmith35:41:00890F4711658F 55-592719411:31/M36:50:00
106GinaPoirier35:41:0034F4811653F 50-5431419411:31/M36:22:00
107BenRoy35:42:00267M59788M 1-105619411:31/M36:37:00
108SeanRoy35:44:00269M607846M 45-493319411:32/M36:40:00
109MarioAlfaro35:44:00585M617838M 35-396719411:32/M36:01:00
110AngelaAlfaro35:44:00566F4911632F 30-3481219411:32/M36:01:00
111CadenceSmith35:47:00889F5011610F 1-1071519411:33/M35:51:00
112KateriMadrigal35:48:00271F5111627F 25-2961019411:33/M38:27:00
113DustinSmith35:50:00892F5211645F 45-4941019411:34/M35:56:00
114YusselfyMaldonado35:56:001274F5311628F 25-2971019411:35/M36:14:00
115FredericaPayne36:03:00867F5411655F 55-593719411:38/M36:39:00
116MentlMadrigal36:20:001287F551163F 1-1081519411:43/M39:01:00
117KimberlyLopez36:43:0035F5611641F 40-4471419411:51/M37:05:00
118DylanLopez36:43:0036M627816M 14-195519411:51/M37:05:00
119RavenHarrington36:50:0054F5711619F 14-192319411:53/M37:47:00
120AlexandriaGordon36:50:00815F5811618F 14-193319411:53/M37:47:00
121BobbyeDieckmann36:54:001276F5911659F 55-594719411:54/M37:35:00
122ArturoDassow37:03:00780M637872M 70-991219411:57/M37:16:00
123BenCossart37:05:00776M647872M 70-992219411:58/M37:16:00
124LizaAlvia37:08:00260F6011638F 35-3951319411:59/M45:57:00
125GulsinayHarris37:20:00823F6111643F 40-4481419412:03/M38:14:00
126HymanAlvia37:24:00259M657837M 35-397719412:04/M45:57:00
127ValerieWorkman37:33:0038F6211651F 50-5441419412:07/M38:33:00
128MonicaGordon37:36:00818F6311643F 40-4491419412:08/M38:33:00
129KellyBlock37:48:00720F6411636F 35-3961319412:12/M38:24:00
130YolandaVillafana38:28:009F6511647F 45-4951019412:25/M39:06:00
131BillMadrigal38:41:00270M667859M 55-594519412:29/M41:25:00
132TinaRoy38:43:00268F6611643F 40-44101419412:29/M39:40:00
133BeckieHerrera39:13:00831F6711659F 55-595719412:39/M39:51:00
134JosefineHartley39:37:00824F6811651F 50-5451419412:47/M40:17:00
135JaydenScrimshire39:38:00882M67787M 1-106619412:47/M40:11:00
136DylanDuncan39:42:00802F691168F 1-1091519412:48/M40:09:00
137ChaneeShockley39:46:00885F7011627F 25-2981019412:50/M40:12:00
138RosemarieHoward39:47:0024F7111653F 50-5461419412:50/M43:12:00
139DelaraMirdamadi39:48:00857F721168F 1-10101519412:50/M40:46:00
140ShaninGollaher39:48:00252F7311646F 45-4961019412:50/M43:12:00
141MeganChester39:52:00770F7411632F 30-3491219412:52/M40:27:00
142SusieFlores39:55:00809F7511640F 40-44111419412:53/M40:52:00
143ShannaVandoren40:14:0064F7611637F 35-3971319412:59/M41:22:00
144dianedillon40:18:00782F7711652F 50-5471419413:00/M40:53:00
145AlisaMunden40:26:001197F7811643F 40-44121419413:03/M40:58:00
146MikeMoody41:10:0052M687850M 50-549919413:17/M41:55:00
147MeganMoody41:10:0051F7911610F 1-10111519413:17/M41:55:00
148StephanieLewt41:22:00273F8011634F 30-34101219413:21/M41:22:00
149TaylorHeredia41:30:00830F8111624F 20-245719413:23/M41:59:00
150JoanneJorgensen41:54:00842F8211652F 50-5481419413:31/M42:13:00
151CindyScrimshire42:20:00881F8311632F 30-34111219413:39/M42:53:00
152AmberDuncan42:20:00801F8411627F 25-2991019413:39/M42:53:00
153JamilaPurnell42:34:00872F8511639F 35-3981319413:44/M42:56:00
154MichelleFriedman42:36:00812F8611635F 35-3991319413:45/M43:14:00
155DebbiePerez-Flores42:45:001205F8711650F 50-5491419413:47/M43:35:00
156StacyMarnell42:53:00848F8811636F 35-39101319413:50/M43:31:00
157EmmaMarnell42:54:00847F891169F 1-10121519413:50/M43:31:00
158DanielMickle43:04:00856M697822M 20-247819413:54/M47:31:00
159DeniseLester43:54:00844F9011649F 45-4971019414:10/M44:31:00
160RachelleSiefken43:55:00886F9111640F 40-44131419414:10/M44:35:00
161LizaBratrud44:01:00765F9211636F 35-39111319414:12/M44:39:00
162KenPursley44:27:00874M707865M 65-693319414:20/M44:58:00
163BetoVanderburg44:44:00254M717811M 11-137819414:26/M45:19:00
164RobertVanderburg44:47:00253M727843M 40-447819414:27/M45:22:00
165DanMeelarp45:10:0061M737812M 11-138819414:34/M46:01:00
166NylaMeelarp45:11:0060F931164F 1-10131519414:35/M46:01:00
167DennyMeelarp45:11:00851M747841M 40-448819414:35/M46:01:00
168IsabelMeelarp45:12:0059F941169F 1-10141519414:35/M46:01:00
169AdrienneMeelarp45:12:0058F9511641F 40-44141419414:35/M46:01:00
170JASMINEPURNELL45:15:00873F9611611F 11-135519414:36/M45:38:00
171CatherineBarnett45:55:00618F9711648F 45-4981019414:49/M49:40:00
172KayleyBarrett46:04:00661F981168F 1-10151519414:52/M46:30:00
173MariaPatrick46:30:00866F9911636F 35-39121319415:00/M47:03:00
174RobinFiduccia46:41:00805F10011649F 45-4991019415:04/M47:52:00
175LindaRamsay46:56:00875F10111674F 70-991119415:08/M47:14:00
176EileenGallardo47:23:00814F10211656F 55-596719415:17/M47:48:00
177LADONNAGRASSO47:24:0025F10311650F 50-54101419415:17/M48:13:00
178GIULIANGRASSO47:25:0026M757823M 20-248819415:18/M48:13:00
179StaceyMickle47:33:001192F10411645F 45-49101019415:20/M51:59:00
180JasonMoss47:35:00861M767830M 30-345519415:21/M51:59:00
181LarryPayne49:24:00868M777858M 55-595519415:56/M50:07:00
182ShylahWilton49:34:0013F10511631F 30-34121219415:59/M50:15:00
183LauraOrr49:46:00865F10611655F 55-597719416:03/M50:21:00
184TammyMayer50:13:00850F10711652F 50-54111419416:12/M50:49:00
185CarrieJurasky50:14:0040F10811660F 60-644419416:12/M50:50:00
186AmandaJohnson50:35:00838F10911624F 20-246719416:19/M51:14:00
187TeresaCorrea51:44:00774F11011628F 25-29101019416:41/M54:57:00
188ChrisHarlander53:18:0065M787864M 60-645519417:12/M53:57:00
189SamanthaHanhie56:02:001283F11111622F 20-247719418:05/M56:54:00
190CindyMetcalf57:04:00854F11211652F 50-54121419418:25/M57:46:00
191CarrieMetcalf57:06:00853F11311651F 50-54131419418:25/M57:47:00
192KathyMetcalf57:06:00855F11411669F 65-691119418:25/M57:46:00
193MERCIMANGABAT OJEDA57:33:0032F11511638F 35-39131319418:34/M58:37:00
194ElizabethScott-Jones57:33:00880F11611653F 50-54141419418:34/M58:37:00
Overall PlaceFirst NameLast NameChipTimeBibGenderGen PlaceTot GendAgeAge GroupAG PlaceTot AGTot DivTotal PaceGunTime
1TimothyHamilton33:57:001168M13632M 30-34171195:29/M34:00:00
2NeilWillis36:48:001239M23629M 25-29121195:56/M36:53:00
3CarlosGuzman39:56:00255M33641M 40-44171196:26/M40:00:00
4AnaMendoza39:58:00264F18328F 25-29191196:27/M40:04:00
5ThomasAscione41:31:001039M43633M 30-34271196:42/M41:55:00
6KristinClark43:03:001146F28341F 40-441121196:57/M43:10:00
7NaohiroTakahaski43:44:001263M53642M 40-44271197:03/M43:50:00
8ErinRobles43:47:001215F38326F 25-29291197:04/M44:31:00
9VickieKnox46:02:001182F48347F 45-49161197:25/M46:11:00
10JavierPerez46:18:001202M63643M 40-44371197:28/M46:24:00
11ElizabethMedina46:38:001189F58326F 25-29391197:31/M46:57:00
12LisaHasvold47:16:001170F68354F 50-54181197:37/M47:26:00
13DavidCarney48:13:001149M73655M 55-59131197:47/M48:31:00
14MaliaJarvis49:56:001177F78339F 35-391151198:03/M50:16:00
15BrookeAnderson III50:07:001037M83652M 50-54131198:05/M50:24:00
16DimitriRushakoff51:03:001267M9369M 1-10111198:14/M51:29:00
17MarkNgolab51:17:001252M103634M 30-34371198:16/M51:32:00
18HeidiMeineke51:31:001190F88331F 30-341141198:19/M51:35:00
19TyAguirre51:55:001022M113649M 45-49151198:22/M52:08:00
20mariearmenta52:39:001038F98335F 35-392151198:30/M52:45:00
21KyleSherman52:53:001220M123636M 35-39141198:32/M53:04:00
22ColleenSherman52:55:001219F108335F 35-393151198:32/M53:04:00
23MelanieMartin53:15:001187F118351F 50-54281198:35/M53:34:00
24MarkWhite53:29:00265M133643M 40-44471198:38/M53:47:00
25DaleRose53:32:001255M143660M 60-64131198:38/M53:50:00
26AmyStine53:47:001224F128328F 25-29491198:40/M54:05:00
27AlishaSeverson Kreissig53:48:001218F138330F 30-342141198:41/M54:05:00
28BradJorda53:53:001180M153655M 55-59231198:41/M54:04:00
29LaurelTaylor53:58:001228F148333F 30-343141198:42/M54:18:00
30MikeSisco54:04:001270M163640M 40-44571198:43/M54:14:00
31SallyMeeker54:05:001265F158334F 30-344141198:43/M54:14:00
32LisaSisco54:05:001221F168344F 40-442121198:43/M54:14:00
33RickEggleton54:06:001269M173634M 30-34471198:44/M54:14:00
34AndreaEggleton54:07:001268F178342F 40-443121198:44/M54:14:00
35ChuckImai54:12:001175M183657M 55-59331198:45/M54:21:00
36RubenRivera54:39:001275M193650M 50-54231198:49/M55:08:00
37SheenaDansie54:42:001156F188331F 30-345141198:49/M55:44:00
38JontriceWells54:49:001238F198331F 30-346141198:50/M55:08:00
39RachelRichards55:24:001211F208342F 40-444121198:56/M55:32:00
40GlennNakasaki56:36:001280M203649M 45-49251199:08/M57:17:00
41GabrielaVargas56:41:001244F218328F 25-29591199:09/M57:01:00
42DavidWarren56:55:001233M213646M 45-49351199:11/M57:06:00
43CATHYESPINO57:11:001254F228345F 45-49261199:13/M57:17:00
44JohnGardner57:41:001162M223636M 35-39241199:18/M58:01:00
45NickPerez57:53:001203M233615M 14-19111199:20/M58:36:00
46SandraQuiralte58:09:001256F238352F 50-54381199:23/M58:27:00
47NicoleClear58:12:001153F248343F 40-445121199:23/M58:43:00
48NickPrice58:34:001210M243626M 25-29221199:27/M58:46:00
49JessicaTam58:35:001226F258324F 20-24131199:27/M58:46:00
50BrentGoldberg58:47:001273M253645M 45-49451199:29/M59:25:00
51MalyndaChristensen59:02:001152F268331F 30-347141199:31/M59:21:00
52CalvinNicholson59:03:001242M263642M 40-44671199:31/M59:29:00
53JenniferMarrs59:30:001186F278339F 35-394151199:36/M59:43:00
54LiliaMiramontes59:49:001193F288336F 35-395151199:39/M59:56:00
55JudyCarney59:49:001150F298358F 55-59151199:39/M1:00:07
56TannerPorter59:50:001209F308312F 11-13121199:39/M1:00:05
57RylanPorter59:58:001208F318310F 1-10121199:40/M1:00:13
58ZaskiaRuiz1:00:101257F328336F 35-396151199:42/M1:00:24
59TinaButler1:00:111148F338345F 45-49361199:42/M1:00:27
60MeganHallowell-Jones1:00:131167F348335F 35-397151199:43/M1:01:23
61SerenaSeshadri1:00:141217F358324F 20-24231199:43/M1:00:27
62BeckyParsons1:00:151199F368339F 35-398151199:43/M1:00:27
63JustinPerkins1:01:211206M273632M 30-34571199:54/M1:01:44
64KimRobinson1:01:291214F378351F 50-54481199:55/M1:01:47
65JessicaMortus1:01:331194F388332F 30-348141199:56/M1:02:01
66BrandyWood1:01:511272F398340F 40-446121199:59/M1:02:36
67SamuelVo1:01:511231M283637M 35-39341199:59/M1:02:12
68KathyJohnson1:02:161179F408352F 50-545811910:03/M1:02:23
69SusanAdams1:03:141021F418353F 50-546811910:12/M1:03:29
70HarryBald1:03:151060M293662M 60-642311910:12/M1:03:41
71ArelyGarcia1:03:171160F428319F 14-191211910:12/M1:03:24
72DawnCline1:03:441154F438341F 40-4471211910:17/M1:04:05
73KarinaHill1:03:491174F448338F 35-3991511910:18/M1:04:04
74KristenGrimes1:03:541166F458344F 40-4481211910:18/M1:04:23
75KapualaniAmpong-Duke1:04:031031F468330F 30-3491411910:20/M1:09:34
76WilliamDuke1:04:051157M303631M 30-346711910:20/M1:09:34
77CandaceLance1:04:581185F478332F 30-34101411910:29/M1:07:17
78KristieBarbier1:05:391090F488338F 35-39101511910:35/M1:05:53
79SusieMun1:05:411196F498336F 35-39111511910:36/M1:09:27
80BrierClear1:05:581264F508319F 14-192211910:38/M1:06:29
81SusanBald1:06:031089F518360F 60-641311910:39/M1:06:14
82SharillCortez1:06:041258F528345F 45-494611910:39/M1:06:19
83MeganElrod1:06:041158F538327F 25-296911910:39/M1:06:19
84KevinButler1:06:20251M313651M 50-543311910:42/M1:06:36
85TabithaTate1:06:381227F548349F 45-495611910:45/M1:07:38
86MarilynGardner1:07:441163F558330F 30-34111411910:55/M1:08:00
87PatriciaWalker1:08:261246F568336F 35-39121511911:02/M1:09:00
88KathyStringer1:08:281225F578356F 55-592511911:03/M1:08:54
89LisaHaas1:08:40821F588352F 50-547811911:05/M1:08:54
90AnnMezzadri1:08:401191F598336F 35-39131511911:05/M1:10:10
91ArleneFoster1:08:471260F608364F 60-642311911:06/M1:09:06
92Sofiaparsons1:08:571200F618312F 11-132211911:07/M1:09:08
93GinaRuiz1:09:161216F628344F 40-4491211911:10/M1:09:39
94MelissaPorter1:09:341207F638329F 25-297911911:13/M1:09:55
95UgochiAnaebere1:10:231243F648340F 40-44101211911:21/M1:10:50
96KarisAnderson1:11:051032F658310F 1-102211911:28/M1:11:28
97KateAnderson1:11:111033F668335F 35-39141511911:29/M1:11:34
98ChristinaGarcia1:11:201161F678333F 30-34121411911:30/M1:12:09
99GabrielaVargas1:12:021249F688328F 25-298911911:37/M1:12:22
100AndrewMadrigal1:13:081261M323633M 30-347711911:48/M1:15:51
101NoelMadrigal1:15:161289F69830F 0- 01111912:08/M1:17:58
102ChristinaBarrett1:16:221095F708333F 30-34131411912:19/M1:16:56
103CatherineWozab1:16:261240F718357F 55-593511912:20/M1:19:50
104MichelleDe Gracia1:16:261262F728328F 25-299911912:20/M1:19:07
105KayeBartolo1:17:371137F738342F 40-44111211912:31/M1:18:06
106DaleBartolo1:17:391107M333641M 40-447711912:31/M1:18:06
107BobLaCross1:18:201183M343661M 60-643311912:38/M1:19:00
108LaurieLaCross1:18:201184F748355F 55-594511912:38/M1:18:59
109LindaHarlander1:19:001169F758357F 55-595511912:45/M1:19:37
110LuluMassawe1:22:14261F768342F 40-44121211913:16/M1:22:50
111NesuneMadrigal1:23:311288F778324F 20-243311913:28/M1:26:13
112RosePerez1:24:431204F788345F 45-496611913:40/M1:25:25
113DinPerez1:24:431201M353645M 45-495511913:40/M1:25:25
114ceceliamurphy1:26:561198F798360F 60-643311914:01/M1:27:33
115ErinJacobs1:28:291176F808335F 35-39151511914:16/M1:31:53
116GerardoRios1:29:321213M363637M 35-394411914:26/M1:29:54
117CeciliaRios1:29:321212F818333F 30-34141411914:26/M1:29:54
118CAROLEPARKER1:30:191259F828353F 50-548811914:34/M1:31:07
119TERRYCARVER1:32:301151F838371F 70-991111914:55/M1:32:47
Overall PlaceFirst NameLast NameChipTimeBibAgeGenderGen PlaceTot GendTot Div
1JohnathanCravin2:2717110M12342
2AudreyFigueroa2:281779F11942
3PrincessCravin2:401728F21942
4JosephOr2:411969M22342
5EnsleyCooper2:4512789F31942
6TalonGardner2:45497M32342
7MarkDurling2:5017610M42342
8AllisonDurling2:551758F41942
9ANDREWESPINO2:5821012M52342
10GraydenStigers3:0220810M62342
11IsaiahCastillo3:081810M72342
12KalebMortus3:131939M82342
13NathanLopez3:1421511M92342
14SamsonCuevas3:201735M102342
15DavidLester3:2118510M112342
16TannerGrimble3:241796M122342
17NatalieFigueroa3:271787F51942
18ReedMeineke3:281925M132342
19EliasCooper3:3612775M142342
20JaxonAscione3:371247M152342
21MollyImai3:3718310F61942
22EmmaParsons3:412237F71942
23AlonsoJones3:4721112M162342
24SamanthaSiefken3:532077F81942
25ClarisaPerez4:0322211F91942
26CalvinDavis4:141747M172342
27HaidenDavis4:282257F101942
28kaedonnunez4:381957M182342
29ZacharyPrather4:532149M192342
30NathanielPrather4:5321310M202342
31CourtneyHendrix5:021813F111942
32CarterRuiz5:042044M212342
33AllisonHendrix5:071804F121942
34BrooklynRuiz5:272036F131942
35IsabellaLopez5:282745F141942
36AveryMunro5:282128F151942
37CananLopez5:322168M222342
38JonathanSiefken5:352064M232342
39OliviaLukehart5:471875F161942
40BrookeMeineke5:541905F171942
41LiliannaHill5:581824F181942
42AriaRuiz6:042022F191942